sensor_id;sensor_type;location;lat;lon;timestamp;P1;durP1;ratioP1;P2;durP2;ratioP2
12681;SDS011;6405;59.208;18.216;2023-11-19T00:00:15;2.80;;;2.17;;
12681;SDS011;6405;59.208;18.216;2023-11-19T00:02:42;2.90;;;2.23;;
12681;SDS011;6405;59.208;18.216;2023-11-19T00:05:08;2.57;;;2.07;;
12681;SDS011;6405;59.208;18.216;2023-11-19T00:07:36;2.67;;;2.00;;
12681;SDS011;6405;59.208;18.216;2023-11-19T00:10:04;3.53;;;2.80;;
12681;SDS011;6405;59.208;18.216;2023-11-19T00:12:32;2.30;;;2.07;;
12681;SDS011;6405;59.208;18.216;2023-11-19T00:14:57;3.70;;;2.60;;
12681;SDS011;6405;59.208;18.216;2023-11-19T00:17:23;3.60;;;2.60;;
12681;SDS011;6405;59.208;18.216;2023-11-19T00:19:49;2.70;;;2.30;;
12681;SDS011;6405;59.208;18.216;2023-11-19T00:22:16;2.63;;;2.43;;
12681;SDS011;6405;59.208;18.216;2023-11-19T00:24:42;2.70;;;2.30;;
12681;SDS011;6405;59.208;18.216;2023-11-19T00:27:08;3.90;;;2.90;;
12681;SDS011;6405;59.208;18.216;2023-11-19T00:29:33;2.90;;;2.43;;
12681;SDS011;6405;59.208;18.216;2023-11-19T00:31:59;3.07;;;2.40;;
12681;SDS011;6405;59.208;18.216;2023-11-19T00:34:25;5.47;;;2.90;;
12681;SDS011;6405;59.208;18.216;2023-11-19T00:36:51;3.77;;;2.80;;
12681;SDS011;6405;59.208;18.216;2023-11-19T00:39:17;5.47;;;3.00;;
12681;SDS011;6405;59.208;18.216;2023-11-19T00:41:43;3.00;;;2.70;;
12681;SDS011;6405;59.208;18.216;2023-11-19T00:44:08;5.50;;;2.93;;
12681;SDS011;6405;59.208;18.216;2023-11-19T00:46:34;3.17;;;2.57;;
12681;SDS011;6405;59.208;18.216;2023-11-19T00:49:00;4.43;;;3.00;;
12681;SDS011;6405;59.208;18.216;2023-11-19T00:51:26;3.67;;;2.67;;
12681;SDS011;6405;59.208;18.216;2023-11-19T00:53:52;3.67;;;2.90;;
12681;SDS011;6405;59.208;18.216;2023-11-19T00:56:18;3.23;;;2.50;;
12681;SDS011;6405;59.208;18.216;2023-11-19T00:58:44;3.40;;;2.83;;
12681;SDS011;6405;59.208;18.216;2023-11-19T01:01:13;3.67;;;2.60;;
12681;SDS011;6405;59.208;18.216;2023-11-19T01:03:39;3.37;;;2.73;;
12681;SDS011;6405;59.208;18.216;2023-11-19T01:06:05;5.17;;;3.20;;
12681;SDS011;6405;59.208;18.216;2023-11-19T01:08:31;3.63;;;3.00;;
12681;SDS011;6405;59.208;18.216;2023-11-19T01:10:56;3.20;;;2.80;;
12681;SDS011;6405;59.208;18.216;2023-11-19T01:13:22;3.40;;;2.97;;
12681;SDS011;6405;59.208;18.216;2023-11-19T01:15:48;4.13;;;3.17;;
12681;SDS011;6405;59.208;18.216;2023-11-19T01:18:14;3.47;;;2.70;;
12681;SDS011;6405;59.208;18.216;2023-11-19T01:20:39;4.63;;;3.50;;
12681;SDS011;6405;59.208;18.216;2023-11-19T01:23:05;3.70;;;3.03;;
12681;SDS011;6405;59.208;18.216;2023-11-19T01:25:31;3.77;;;2.67;;
12681;SDS011;6405;59.208;18.216;2023-11-19T01:27:56;4.77;;;2.70;;
12681;SDS011;6405;59.208;18.216;2023-11-19T01:30:23;3.87;;;3.27;;
12681;SDS011;6405;59.208;18.216;2023-11-19T01:32:49;4.27;;;3.03;;
12681;SDS011;6405;59.208;18.216;2023-11-19T01:35:15;3.27;;;2.67;;
12681;SDS011;6405;59.208;18.216;2023-11-19T01:37:41;7.20;;;3.43;;
12681;SDS011;6405;59.208;18.216;2023-11-19T01:40:06;4.53;;;2.83;;
12681;SDS011;6405;59.208;18.216;2023-11-19T01:42:36;5.17;;;3.30;;
12681;SDS011;6405;59.208;18.216;2023-11-19T01:45:03;4.20;;;3.33;;
12681;SDS011;6405;59.208;18.216;2023-11-19T01:47:32;6.20;;;3.73;;
12681;SDS011;6405;59.208;18.216;2023-11-19T01:49:59;3.40;;;2.73;;
12681;SDS011;6405;59.208;18.216;2023-11-19T01:52:26;8.57;;;3.50;;
12681;SDS011;6405;59.208;18.216;2023-11-19T01:54:53;5.03;;;3.40;;
12681;SDS011;6405;59.208;18.216;2023-11-19T01:57:20;4.40;;;3.50;;
12681;SDS011;6405;59.208;18.216;2023-11-19T01:59:48;5.00;;;3.20;;
12681;SDS011;6405;59.208;18.216;2023-11-19T02:02:16;4.67;;;3.57;;
12681;SDS011;6405;59.208;18.216;2023-11-19T02:04:46;5.63;;;3.20;;
12681;SDS011;6405;59.208;18.216;2023-11-19T02:07:13;4.70;;;3.20;;
12681;SDS011;6405;59.208;18.216;2023-11-19T02:09:42;6.30;;;3.43;;
12681;SDS011;6405;59.208;18.216;2023-11-19T02:12:09;4.33;;;3.20;;
12681;SDS011;6405;59.208;18.216;2023-11-19T02:14:36;3.23;;;2.67;;
12681;SDS011;6405;59.208;18.216;2023-11-19T02:17:02;6.03;;;2.30;;
12681;SDS011;6405;59.208;18.216;2023-11-19T02:19:29;6.30;;;3.30;;
12681;SDS011;6405;59.208;18.216;2023-11-19T02:21:54;3.77;;;2.60;;
12681;SDS011;6405;59.208;18.216;2023-11-19T02:24:21;5.40;;;3.33;;
12681;SDS011;6405;59.208;18.216;2023-11-19T02:29:22;3.63;;;3.00;;
12681;SDS011;6405;59.208;18.216;2023-11-19T02:31:48;4.37;;;3.10;;
12681;SDS011;6405;59.208;18.216;2023-11-19T02:34:14;4.17;;;2.90;;
12681;SDS011;6405;59.208;18.216;2023-11-19T02:36:39;3.43;;;2.90;;
12681;SDS011;6405;59.208;18.216;2023-11-19T02:39:06;4.40;;;2.90;;
12681;SDS011;6405;59.208;18.216;2023-11-19T02:41:36;3.37;;;3.03;;
12681;SDS011;6405;59.208;18.216;2023-11-19T02:44:05;3.33;;;3.00;;
12681;SDS011;6405;59.208;18.216;2023-11-19T02:46:33;5.67;;;3.60;;
12681;SDS011;6405;59.208;18.216;2023-11-19T02:48:59;5.47;;;3.40;;
12681;SDS011;6405;59.208;18.216;2023-11-19T02:51:25;3.73;;;2.73;;
12681;SDS011;6405;59.208;18.216;2023-11-19T02:53:52;4.90;;;3.13;;
12681;SDS011;6405;59.208;18.216;2023-11-19T02:56:18;5.73;;;3.40;;
12681;SDS011;6405;59.208;18.216;2023-11-19T02:58:54;5.07;;;3.10;;
12681;SDS011;6405;59.208;18.216;2023-11-19T03:01:23;5.60;;;3.63;;
12681;SDS011;6405;59.208;18.216;2023-11-19T03:03:54;5.87;;;3.20;;
12681;SDS011;6405;59.208;18.216;2023-11-19T03:06:24;7.67;;;3.60;;
12681;SDS011;6405;59.208;18.216;2023-11-19T03:08:50;5.83;;;3.20;;
12681;SDS011;6405;59.208;18.216;2023-11-19T03:11:15;5.77;;;3.63;;
12681;SDS011;6405;59.208;18.216;2023-11-19T03:13:41;7.73;;;3.60;;
12681;SDS011;6405;59.208;18.216;2023-11-19T03:16:07;5.53;;;3.73;;
12681;SDS011;6405;59.208;18.216;2023-11-19T03:18:33;7.23;;;3.80;;
12681;SDS011;6405;59.208;18.216;2023-11-19T03:20:58;7.73;;;4.07;;
12681;SDS011;6405;59.208;18.216;2023-11-19T03:23:24;7.07;;;4.10;;
12681;SDS011;6405;59.208;18.216;2023-11-19T03:25:52;6.37;;;4.23;;
12681;SDS011;6405;59.208;18.216;2023-11-19T03:28:18;6.57;;;4.23;;
12681;SDS011;6405;59.208;18.216;2023-11-19T03:30:44;4.37;;;3.73;;
12681;SDS011;6405;59.208;18.216;2023-11-19T03:33:10;8.23;;;4.87;;
12681;SDS011;6405;59.208;18.216;2023-11-19T03:35:35;7.53;;;4.30;;
12681;SDS011;6405;59.208;18.216;2023-11-19T03:38:01;8.53;;;4.80;;
12681;SDS011;6405;59.208;18.216;2023-11-19T03:40:27;6.67;;;4.63;;
12681;SDS011;6405;59.208;18.216;2023-11-19T03:42:55;8.07;;;5.13;;
12681;SDS011;6405;59.208;18.216;2023-11-19T03:45:22;9.70;;;5.97;;
12681;SDS011;6405;59.208;18.216;2023-11-19T03:47:48;8.40;;;4.80;;
12681;SDS011;6405;59.208;18.216;2023-11-19T03:50:15;7.97;;;4.90;;
12681;SDS011;6405;59.208;18.216;2023-11-19T03:52:41;7.47;;;5.10;;
12681;SDS011;6405;59.208;18.216;2023-11-19T03:55:07;6.10;;;4.50;;
12681;SDS011;6405;59.208;18.216;2023-11-19T03:57:34;9.10;;;5.00;;
12681;SDS011;6405;59.208;18.216;2023-11-19T04:00:00;7.27;;;5.37;;
12681;SDS011;6405;59.208;18.216;2023-11-19T04:02:32;8.50;;;5.07;;
12681;SDS011;6405;59.208;18.216;2023-11-19T04:04:58;8.43;;;5.67;;
12681;SDS011;6405;59.208;18.216;2023-11-19T04:07:24;7.80;;;4.83;;
12681;SDS011;6405;59.208;18.216;2023-11-19T04:09:49;8.07;;;4.63;;
12681;SDS011;6405;59.208;18.216;2023-11-19T04:12:15;6.77;;;4.60;;
12681;SDS011;6405;59.208;18.216;2023-11-19T04:14:41;8.97;;;5.57;;
12681;SDS011;6405;59.208;18.216;2023-11-19T04:17:07;7.67;;;5.13;;
12681;SDS011;6405;59.208;18.216;2023-11-19T04:19:33;7.03;;;4.83;;
12681;SDS011;6405;59.208;18.216;2023-11-19T04:21:58;7.30;;;5.10;;
12681;SDS011;6405;59.208;18.216;2023-11-19T04:24:24;11.60;;;5.10;;
12681;SDS011;6405;59.208;18.216;2023-11-19T04:26:50;6.80;;;4.53;;
12681;SDS011;6405;59.208;18.216;2023-11-19T04:29:16;6.23;;;4.30;;
12681;SDS011;6405;59.208;18.216;2023-11-19T04:31:42;7.20;;;4.60;;
12681;SDS011;6405;59.208;18.216;2023-11-19T04:34:09;6.07;;;3.90;;
12681;SDS011;6405;59.208;18.216;2023-11-19T04:36:36;6.70;;;4.27;;
12681;SDS011;6405;59.208;18.216;2023-11-19T04:39:02;8.80;;;4.43;;
12681;SDS011;6405;59.208;18.216;2023-11-19T04:41:50;6.93;;;4.03;;
12681;SDS011;6405;59.208;18.216;2023-11-19T04:44:19;8.27;;;4.40;;
12681;SDS011;6405;59.208;18.216;2023-11-19T04:46:45;5.43;;;3.47;;
12681;SDS011;6405;59.208;18.216;2023-11-19T04:49:11;6.80;;;4.40;;
12681;SDS011;6405;59.208;18.216;2023-11-19T04:51:41;5.53;;;4.10;;
12681;SDS011;6405;59.208;18.216;2023-11-19T04:54:08;5.87;;;3.93;;
12681;SDS011;6405;59.208;18.216;2023-11-19T04:56:34;5.63;;;3.90;;
12681;SDS011;6405;59.208;18.216;2023-11-19T04:59:03;4.43;;;3.80;;
12681;SDS011;6405;59.208;18.216;2023-11-19T05:01:31;5.33;;;3.80;;
12681;SDS011;6405;59.208;18.216;2023-11-19T05:04:00;5.63;;;4.03;;
12681;SDS011;6405;59.208;18.216;2023-11-19T05:06:30;5.70;;;3.90;;
12681;SDS011;6405;59.208;18.216;2023-11-19T05:08:57;6.27;;;4.33;;
12681;SDS011;6405;59.208;18.216;2023-11-19T05:11:29;6.40;;;4.37;;
12681;SDS011;6405;59.208;18.216;2023-11-19T05:13:55;5.67;;;3.70;;
12681;SDS011;6405;59.208;18.216;2023-11-19T05:16:21;5.87;;;3.73;;
12681;SDS011;6405;59.208;18.216;2023-11-19T05:18:46;4.67;;;3.63;;
12681;SDS011;6405;59.208;18.216;2023-11-19T05:21:12;6.03;;;4.07;;
12681;SDS011;6405;59.208;18.216;2023-11-19T05:23:38;5.23;;;3.67;;
12681;SDS011;6405;59.208;18.216;2023-11-19T05:26:04;4.50;;;3.60;;
12681;SDS011;6405;59.208;18.216;2023-11-19T05:28:30;5.83;;;4.17;;
12681;SDS011;6405;59.208;18.216;2023-11-19T05:30:56;5.00;;;3.60;;
12681;SDS011;6405;59.208;18.216;2023-11-19T05:33:22;5.70;;;4.27;;
12681;SDS011;6405;59.208;18.216;2023-11-19T05:35:48;6.33;;;4.03;;
12681;SDS011;6405;59.208;18.216;2023-11-19T05:38:14;6.13;;;3.97;;
12681;SDS011;6405;59.208;18.216;2023-11-19T05:40:40;5.03;;;3.90;;
12681;SDS011;6405;59.208;18.216;2023-11-19T05:43:06;5.80;;;3.70;;
12681;SDS011;6405;59.208;18.216;2023-11-19T05:45:32;5.57;;;4.13;;
12681;SDS011;6405;59.208;18.216;2023-11-19T05:47:58;8.33;;;4.20;;
12681;SDS011;6405;59.208;18.216;2023-11-19T05:50:23;5.43;;;4.07;;
12681;SDS011;6405;59.208;18.216;2023-11-19T05:52:49;7.07;;;4.37;;
12681;SDS011;6405;59.208;18.216;2023-11-19T05:55:17;7.93;;;3.90;;
12681;SDS011;6405;59.208;18.216;2023-11-19T05:57:44;4.30;;;3.70;;
12681;SDS011;6405;59.208;18.216;2023-11-19T06:00:10;5.10;;;3.73;;
12681;SDS011;6405;59.208;18.216;2023-11-19T06:02:38;6.97;;;4.03;;
12681;SDS011;6405;59.208;18.216;2023-11-19T06:05:04;6.33;;;4.30;;
12681;SDS011;6405;59.208;18.216;2023-11-19T06:07:31;4.93;;;3.90;;
12681;SDS011;6405;59.208;18.216;2023-11-19T06:09:57;7.73;;;4.10;;
12681;SDS011;6405;59.208;18.216;2023-11-19T06:12:23;6.13;;;3.97;;
12681;SDS011;6405;59.208;18.216;2023-11-19T06:14:49;7.17;;;4.03;;
12681;SDS011;6405;59.208;18.216;2023-11-19T06:17:14;5.40;;;4.00;;
12681;SDS011;6405;59.208;18.216;2023-11-19T06:19:40;6.37;;;4.07;;
12681;SDS011;6405;59.208;18.216;2023-11-19T06:22:06;6.33;;;4.10;;
12681;SDS011;6405;59.208;18.216;2023-11-19T06:24:31;5.60;;;3.97;;
12681;SDS011;6405;59.208;18.216;2023-11-19T06:26:57;5.03;;;3.63;;
12681;SDS011;6405;59.208;18.216;2023-11-19T06:29:23;4.87;;;3.73;;
12681;SDS011;6405;59.208;18.216;2023-11-19T06:31:49;6.30;;;4.27;;
12681;SDS011;6405;59.208;18.216;2023-11-19T06:34:15;4.60;;;3.43;;
12681;SDS011;6405;59.208;18.216;2023-11-19T06:36:41;5.10;;;3.60;;
12681;SDS011;6405;59.208;18.216;2023-11-19T06:39:10;5.43;;;3.70;;
12681;SDS011;6405;59.208;18.216;2023-11-19T06:41:40;5.43;;;4.00;;
12681;SDS011;6405;59.208;18.216;2023-11-19T06:44:10;5.33;;;3.50;;
12681;SDS011;6405;59.208;18.216;2023-11-19T06:46:35;7.13;;;3.90;;
12681;SDS011;6405;59.208;18.216;2023-11-19T06:49:01;7.33;;;3.53;;
12681;SDS011;6405;59.208;18.216;2023-11-19T06:51:27;5.53;;;3.80;;
12681;SDS011;6405;59.208;18.216;2023-11-19T06:53:53;6.03;;;3.87;;
12681;SDS011;6405;59.208;18.216;2023-11-19T06:56:19;5.57;;;3.83;;
12681;SDS011;6405;59.208;18.216;2023-11-19T06:58:46;6.50;;;3.90;;
12681;SDS011;6405;59.208;18.216;2023-11-19T07:01:13;7.20;;;4.43;;
12681;SDS011;6405;59.208;18.216;2023-11-19T07:03:44;5.03;;;3.70;;
12681;SDS011;6405;59.208;18.216;2023-11-19T07:06:13;6.50;;;4.17;;
12681;SDS011;6405;59.208;18.216;2023-11-19T07:08:40;7.80;;;4.13;;
12681;SDS011;6405;59.208;18.216;2023-11-19T07:11:07;6.93;;;4.40;;
12681;SDS011;6405;59.208;18.216;2023-11-19T07:13:35;6.53;;;4.00;;
12681;SDS011;6405;59.208;18.216;2023-11-19T07:16:02;6.50;;;3.63;;
12681;SDS011;6405;59.208;18.216;2023-11-19T07:18:28;5.50;;;3.97;;
12681;SDS011;6405;59.208;18.216;2023-11-19T07:20:54;6.57;;;4.17;;
12681;SDS011;6405;59.208;18.216;2023-11-19T07:23:20;7.07;;;4.17;;
12681;SDS011;6405;59.208;18.216;2023-11-19T07:25:46;10.37;;;3.63;;
12681;SDS011;6405;59.208;18.216;2023-11-19T07:28:15;6.97;;;4.10;;
12681;SDS011;6405;59.208;18.216;2023-11-19T07:30:41;6.10;;;3.70;;
12681;SDS011;6405;59.208;18.216;2023-11-19T07:33:07;6.13;;;4.30;;
12681;SDS011;6405;59.208;18.216;2023-11-19T07:35:33;6.03;;;3.80;;
12681;SDS011;6405;59.208;18.216;2023-11-19T07:37:59;5.93;;;3.73;;
12681;SDS011;6405;59.208;18.216;2023-11-19T07:40:24;8.07;;;4.30;;
12681;SDS011;6405;59.208;18.216;2023-11-19T07:42:50;6.17;;;4.27;;
12681;SDS011;6405;59.208;18.216;2023-11-19T07:45:16;9.73;;;4.87;;
12681;SDS011;6405;59.208;18.216;2023-11-19T07:47:42;6.93;;;3.93;;
12681;SDS011;6405;59.208;18.216;2023-11-19T07:50:10;6.73;;;4.50;;
12681;SDS011;6405;59.208;18.216;2023-11-19T07:52:37;12.37;;;6.80;;
12681;SDS011;6405;59.208;18.216;2023-11-19T07:55:03;50.47;;;24.27;;
12681;SDS011;6405;59.208;18.216;2023-11-19T07:57:30;9.50;;;5.10;;
12681;SDS011;6405;59.208;18.216;2023-11-19T07:59:59;10.23;;;6.23;;
12681;SDS011;6405;59.208;18.216;2023-11-19T08:02:26;6.43;;;4.67;;
12681;SDS011;6405;59.208;18.216;2023-11-19T08:04:52;7.30;;;5.00;;
12681;SDS011;6405;59.208;18.216;2023-11-19T08:07:20;8.83;;;4.93;;
12681;SDS011;6405;59.208;18.216;2023-11-19T08:09:46;7.77;;;5.50;;
12681;SDS011;6405;59.208;18.216;2023-11-19T08:12:12;9.27;;;5.33;;
12681;SDS011;6405;59.208;18.216;2023-11-19T08:14:40;7.50;;;5.10;;
12681;SDS011;6405;59.208;18.216;2023-11-19T08:17:06;6.93;;;4.57;;
12681;SDS011;6405;59.208;18.216;2023-11-19T08:19:32;7.60;;;4.60;;
12681;SDS011;6405;59.208;18.216;2023-11-19T08:21:57;6.93;;;4.30;;
12681;SDS011;6405;59.208;18.216;2023-11-19T08:24:23;7.83;;;4.90;;
12681;SDS011;6405;59.208;18.216;2023-11-19T08:26:49;6.20;;;4.17;;
12681;SDS011;6405;59.208;18.216;2023-11-19T08:29:14;6.13;;;4.30;;
12681;SDS011;6405;59.208;18.216;2023-11-19T08:31:40;6.47;;;4.70;;
12681;SDS011;6405;59.208;18.216;2023-11-19T08:34:07;5.83;;;4.03;;
12681;SDS011;6405;59.208;18.216;2023-11-19T08:36:35;6.47;;;4.03;;
12681;SDS011;6405;59.208;18.216;2023-11-19T08:39:01;8.23;;;4.80;;
12681;SDS011;6405;59.208;18.216;2023-11-19T08:41:28;12.47;;;4.90;;
12681;SDS011;6405;59.208;18.216;2023-11-19T08:43:53;8.93;;;4.40;;
12681;SDS011;6405;59.208;18.216;2023-11-19T08:46:19;7.20;;;4.40;;
12681;SDS011;6405;59.208;18.216;2023-11-19T08:48:45;10.77;;;5.17;;
12681;SDS011;6405;59.208;18.216;2023-11-19T08:51:11;9.43;;;4.47;;
12681;SDS011;6405;59.208;18.216;2023-11-19T08:53:38;8.30;;;4.60;;
12681;SDS011;6405;59.208;18.216;2023-11-19T08:56:04;5.47;;;3.90;;
12681;SDS011;6405;59.208;18.216;2023-11-19T08:58:30;5.63;;;4.13;;
12681;SDS011;6405;59.208;18.216;2023-11-19T09:00:56;6.27;;;4.20;;
12681;SDS011;6405;59.208;18.216;2023-11-19T09:03:22;5.93;;;3.63;;
12681;SDS011;6405;59.208;18.216;2023-11-19T09:05:48;5.10;;;3.67;;
12681;SDS011;6405;59.208;18.216;2023-11-19T09:08:14;6.20;;;3.60;;
12681;SDS011;6405;59.208;18.216;2023-11-19T09:10:40;6.07;;;3.30;;
12681;SDS011;6405;59.208;18.216;2023-11-19T09:13:05;5.73;;;3.80;;
12681;SDS011;6405;59.208;18.216;2023-11-19T09:15:31;5.97;;;4.07;;
12681;SDS011;6405;59.208;18.216;2023-11-19T09:17:57;6.90;;;4.57;;
12681;SDS011;6405;59.208;18.216;2023-11-19T09:20:22;6.43;;;3.93;;
12681;SDS011;6405;59.208;18.216;2023-11-19T09:22:48;6.17;;;3.97;;
12681;SDS011;6405;59.208;18.216;2023-11-19T09:25:14;6.30;;;4.33;;
12681;SDS011;6405;59.208;18.216;2023-11-19T09:27:45;5.90;;;4.00;;
12681;SDS011;6405;59.208;18.216;2023-11-19T09:30:11;7.00;;;4.37;;
12681;SDS011;6405;59.208;18.216;2023-11-19T09:32:37;6.17;;;4.60;;
12681;SDS011;6405;59.208;18.216;2023-11-19T09:35:03;6.83;;;4.53;;
12681;SDS011;6405;59.208;18.216;2023-11-19T09:37:29;5.33;;;3.87;;
12681;SDS011;6405;59.208;18.216;2023-11-19T09:39:55;5.00;;;3.87;;
12681;SDS011;6405;59.208;18.216;2023-11-19T09:42:21;5.33;;;3.80;;
12681;SDS011;6405;59.208;18.216;2023-11-19T09:44:48;6.40;;;3.50;;
12681;SDS011;6405;59.208;18.216;2023-11-19T09:47:14;6.30;;;4.03;;
12681;SDS011;6405;59.208;18.216;2023-11-19T09:49:42;4.87;;;3.43;;
12681;SDS011;6405;59.208;18.216;2023-11-19T09:52:08;5.00;;;3.77;;
12681;SDS011;6405;59.208;18.216;2023-11-19T09:54:34;5.83;;;3.77;;
12681;SDS011;6405;59.208;18.216;2023-11-19T09:57:00;5.90;;;4.20;;
12681;SDS011;6405;59.208;18.216;2023-11-19T09:59:31;6.00;;;4.17;;
12681;SDS011;6405;59.208;18.216;2023-11-19T10:01:57;5.80;;;3.90;;
12681;SDS011;6405;59.208;18.216;2023-11-19T10:04:24;7.23;;;4.30;;
12681;SDS011;6405;59.208;18.216;2023-11-19T10:06:54;4.33;;;3.53;;
12681;SDS011;6405;59.208;18.216;2023-11-19T10:09:20;4.87;;;3.70;;
12681;SDS011;6405;59.208;18.216;2023-11-19T10:11:46;5.77;;;3.93;;
12681;SDS011;6405;59.208;18.216;2023-11-19T10:14:11;6.97;;;4.00;;
12681;SDS011;6405;59.208;18.216;2023-11-19T10:16:39;6.33;;;4.13;;
12681;SDS011;6405;59.208;18.216;2023-11-19T10:19:05;6.07;;;4.03;;
12681;SDS011;6405;59.208;18.216;2023-11-19T10:21:32;6.53;;;3.73;;
12681;SDS011;6405;59.208;18.216;2023-11-19T10:23:59;6.33;;;4.20;;
12681;SDS011;6405;59.208;18.216;2023-11-19T10:26:27;7.33;;;5.17;;
12681;SDS011;6405;59.208;18.216;2023-11-19T10:28:56;12.03;;;6.40;;
12681;SDS011;6405;59.208;18.216;2023-11-19T10:31:21;7.60;;;5.97;;
12681;SDS011;6405;59.208;18.216;2023-11-19T10:33:51;7.53;;;5.40;;
12681;SDS011;6405;59.208;18.216;2023-11-19T10:36:17;5.70;;;4.10;;
12681;SDS011;6405;59.208;18.216;2023-11-19T10:38:51;7.63;;;4.50;;
12681;SDS011;6405;59.208;18.216;2023-11-19T10:41:28;5.23;;;3.73;;
12681;SDS011;6405;59.208;18.216;2023-11-19T10:43:53;9.77;;;4.80;;
12681;SDS011;6405;59.208;18.216;2023-11-19T10:46:19;6.97;;;3.90;;
12681;SDS011;6405;59.208;18.216;2023-11-19T10:48:48;5.83;;;3.93;;
12681;SDS011;6405;59.208;18.216;2023-11-19T10:51:16;7.27;;;4.47;;
12681;SDS011;6405;59.208;18.216;2023-11-19T10:53:49;4.13;;;3.50;;
12681;SDS011;6405;59.208;18.216;2023-11-19T10:56:18;4.87;;;3.97;;
12681;SDS011;6405;59.208;18.216;2023-11-19T10:58:45;21.10;;;13.03;;
12681;SDS011;6405;59.208;18.216;2023-11-19T11:01:19;5.90;;;3.60;;
12681;SDS011;6405;59.208;18.216;2023-11-19T11:03:48;5.73;;;3.10;;
12681;SDS011;6405;59.208;18.216;2023-11-19T11:06:19;10.30;;;5.53;;
12681;SDS011;6405;59.208;18.216;2023-11-19T11:08:47;8.60;;;6.10;;
12681;SDS011;6405;59.208;18.216;2023-11-19T11:11:15;5.40;;;3.23;;
12681;SDS011;6405;59.208;18.216;2023-11-19T11:13:46;5.40;;;3.00;;
12681;SDS011;6405;59.208;18.216;2023-11-19T11:16:14;4.53;;;3.00;;
12681;SDS011;6405;59.208;18.216;2023-11-19T11:18:43;4.97;;;3.43;;
12681;SDS011;6405;59.208;18.216;2023-11-19T11:21:12;6.23;;;3.67;;
12681;SDS011;6405;59.208;18.216;2023-11-19T11:29:31;4.53;;;3.53;;
12681;SDS011;6405;59.208;18.216;2023-11-19T11:32:35;4.27;;;3.20;;
12681;SDS011;6405;59.208;18.216;2023-11-19T11:38:22;3.10;;;2.80;;
12681;SDS011;6405;59.208;18.216;2023-11-19T11:43:51;12.13;;;7.37;;
12681;SDS011;6405;59.208;18.216;2023-11-19T11:48:57;15.63;;;11.03;;
12681;SDS011;6405;59.208;18.216;2023-11-19T11:59:45;17.13;;;11.47;;
12681;SDS011;6405;59.208;18.216;2023-11-19T12:02:13;23.20;;;14.83;;
12681;SDS011;6405;59.208;18.216;2023-11-19T12:04:41;5.90;;;3.60;;
12681;SDS011;6405;59.208;18.216;2023-11-19T12:07:15;5.27;;;3.60;;
12681;SDS011;6405;59.208;18.216;2023-11-19T12:09:52;6.77;;;4.40;;
12681;SDS011;6405;59.208;18.216;2023-11-19T12:12:27;7.10;;;3.90;;
12681;SDS011;6405;59.208;18.216;2023-11-19T12:20:02;4.23;;;2.80;;
12681;SDS011;6405;59.208;18.216;2023-11-19T12:22:31;5.03;;;3.37;;
12681;SDS011;6405;59.208;18.216;2023-11-19T12:24:57;3.97;;;3.10;;
12681;SDS011;6405;59.208;18.216;2023-11-19T12:27:23;4.60;;;2.83;;
12681;SDS011;6405;59.208;18.216;2023-11-19T12:29:49;5.93;;;3.30;;
12681;SDS011;6405;59.208;18.216;2023-11-19T12:32:15;6.63;;;4.07;;
12681;SDS011;6405;59.208;18.216;2023-11-19T12:34:41;5.03;;;3.10;;
12681;SDS011;6405;59.208;18.216;2023-11-19T12:37:07;4.40;;;3.10;;
12681;SDS011;6405;59.208;18.216;2023-11-19T12:39:36;23.70;;;12.93;;
12681;SDS011;6405;59.208;18.216;2023-11-19T12:42:01;308.87;;;182.47;;
12681;SDS011;6405;59.208;18.216;2023-11-19T12:44:27;203.27;;;102.60;;
12681;SDS011;6405;59.208;18.216;2023-11-19T12:47:00;173.50;;;84.17;;
12681;SDS011;6405;59.208;18.216;2023-11-19T12:49:29;16.33;;;9.17;;
12681;SDS011;6405;59.208;18.216;2023-11-19T12:51:55;10.97;;;6.30;;
12681;SDS011;6405;59.208;18.216;2023-11-19T12:54:31;8.60;;;5.03;;
12681;SDS011;6405;59.208;18.216;2023-11-19T12:56:58;5.40;;;3.47;;
12681;SDS011;6405;59.208;18.216;2023-11-19T12:59:23;4.00;;;2.73;;
12681;SDS011;6405;59.208;18.216;2023-11-19T13:01:58;11.37;;;7.70;;
12681;SDS011;6405;59.208;18.216;2023-11-19T13:04:28;6.37;;;3.90;;
12681;SDS011;6405;59.208;18.216;2023-11-19T13:06:58;6.53;;;3.63;;
12681;SDS011;6405;59.208;18.216;2023-11-19T13:09:28;4.47;;;3.00;;
12681;SDS011;6405;59.208;18.216;2023-11-19T13:11:54;4.37;;;3.13;;
12681;SDS011;6405;59.208;18.216;2023-11-19T13:14:21;4.17;;;3.10;;
12681;SDS011;6405;59.208;18.216;2023-11-19T13:16:48;29.03;;;19.43;;
12681;SDS011;6405;59.208;18.216;2023-11-19T13:19:16;4.30;;;3.40;;
12681;SDS011;6405;59.208;18.216;2023-11-19T13:21:44;14.23;;;10.60;;
12681;SDS011;6405;59.208;18.216;2023-11-19T13:24:13;11.30;;;8.10;;
12681;SDS011;6405;59.208;18.216;2023-11-19T13:26:39;21.93;;;15.83;;
12681;SDS011;6405;59.208;18.216;2023-11-19T13:29:05;24.60;;;16.87;;
12681;SDS011;6405;59.208;18.216;2023-11-19T13:31:30;39.23;;;28.23;;
12681;SDS011;6405;59.208;18.216;2023-11-19T13:33:56;89.07;;;60.10;;
12681;SDS011;6405;59.208;18.216;2023-11-19T13:36:23;89.20;;;62.70;;
12681;SDS011;6405;59.208;18.216;2023-11-19T13:38:50;108.00;;;74.47;;
12681;SDS011;6405;59.208;18.216;2023-11-19T13:41:16;11.90;;;8.40;;
12681;SDS011;6405;59.208;18.216;2023-11-19T13:43:42;30.93;;;20.43;;
12681;SDS011;6405;59.208;18.216;2023-11-19T13:46:09;31.30;;;19.83;;
12681;SDS011;6405;59.208;18.216;2023-11-19T13:48:37;169.13;;;112.43;;
12681;SDS011;6405;59.208;18.216;2023-11-19T13:51:03;90.77;;;63.53;;
12681;SDS011;6405;59.208;18.216;2023-11-19T13:53:29;147.07;;;99.90;;
12681;SDS011;6405;59.208;18.216;2023-11-19T13:55:54;99.40;;;65.40;;
12681;SDS011;6405;59.208;18.216;2023-11-19T13:58:20;76.23;;;50.40;;
12681;SDS011;6405;59.208;18.216;2023-11-19T14:00:46;85.00;;;52.50;;
12681;SDS011;6405;59.208;18.216;2023-11-19T14:03:12;96.00;;;61.73;;
12681;SDS011;6405;59.208;18.216;2023-11-19T14:05:38;68.27;;;44.03;;
12681;SDS011;6405;59.208;18.216;2023-11-19T14:08:06;24.70;;;16.27;;
12681;SDS011;6405;59.208;18.216;2023-11-19T14:10:38;44.80;;;28.10;;
12681;SDS011;6405;59.208;18.216;2023-11-19T14:13:07;34.00;;;22.30;;
12681;SDS011;6405;59.208;18.216;2023-11-19T14:15:33;46.47;;;29.67;;
12681;SDS011;6405;59.208;18.216;2023-11-19T14:18:00;57.37;;;34.17;;
12681;SDS011;6405;59.208;18.216;2023-11-19T14:20:26;64.13;;;40.47;;
12681;SDS011;6405;59.208;18.216;2023-11-19T14:22:51;76.27;;;49.07;;
12681;SDS011;6405;59.208;18.216;2023-11-19T14:25:17;53.87;;;37.27;;
12681;SDS011;6405;59.208;18.216;2023-11-19T14:27:43;137.63;;;86.50;;
12681;SDS011;6405;59.208;18.216;2023-11-19T14:30:11;41.10;;;27.37;;
12681;SDS011;6405;59.208;18.216;2023-11-19T14:32:41;17.37;;;9.77;;
12681;SDS011;6405;59.208;18.216;2023-11-19T14:35:09;58.53;;;35.63;;
12681;SDS011;6405;59.208;18.216;2023-11-19T14:37:35;87.13;;;51.57;;
12681;SDS011;6405;59.208;18.216;2023-11-19T14:40:01;90.43;;;54.00;;
12681;SDS011;6405;59.208;18.216;2023-11-19T14:42:32;23.10;;;14.07;;
12681;SDS011;6405;59.208;18.216;2023-11-19T14:44:58;20.67;;;11.87;;
12681;SDS011;6405;59.208;18.216;2023-11-19T14:47:26;95.50;;;48.93;;
12681;SDS011;6405;59.208;18.216;2023-11-19T14:49:52;163.30;;;86.03;;
12681;SDS011;6405;59.208;18.216;2023-11-19T14:52:17;135.17;;;71.00;;
12681;SDS011;6405;59.208;18.216;2023-11-19T14:54:43;88.03;;;47.63;;
12681;SDS011;6405;59.208;18.216;2023-11-19T14:57:09;51.90;;;29.00;;
12681;SDS011;6405;59.208;18.216;2023-11-19T14:59:35;60.33;;;33.13;;
12681;SDS011;6405;59.208;18.216;2023-11-19T15:02:01;46.87;;;23.67;;
12681;SDS011;6405;59.208;18.216;2023-11-19T15:04:27;51.00;;;24.70;;
12681;SDS011;6405;59.208;18.216;2023-11-19T15:06:56;12.13;;;6.80;;
12681;SDS011;6405;59.208;18.216;2023-11-19T15:09:22;18.97;;;10.40;;
12681;SDS011;6405;59.208;18.216;2023-11-19T15:11:48;136.93;;;69.13;;